Time;durP1;ratioP1;P1;durP2;ratioP2;P2;SDS_P1;SDS_P2;PMS_P1;PMS_P2;Temp;Humidity;BMP_temperature;BMP_pressure;BME280_temperature;BME280_humidity;BME280_pressure;Samples;Min_cycle;Max_cycle;Signal;HPM_P1;HPM_P2
2021/04/30 00:01:38;;;;;;;9.37;7.60;;;;;;;10.19;51.25;96112.13;5030832;28;20200;-65
2021/04/30 00:04:04;;;;;;;8.43;7.60;;;;;;;10.04;51.24;96115.50;5032259;28;20186;-66
2021/04/30 00:06:29;;;;;;;8.20;7.40;;;;;;;10.10;51.55;96106.97;5031471;28;20180;-65
2021/04/30 00:08:55;;;;;;;10.33;7.37;;;;;;;10.44;50.37;96110.94;5032707;28;20658;-65
2021/04/30 00:11:20;;;;;;;9.00;7.47;;;;;;;10.43;50.33;96108.50;5033336;28;20195;-65
2021/04/30 00:13:46;;;;;;;10.07;8.10;;;;;;;10.30;49.70;96107.28;5030449;28;20203;-66
2021/04/30 00:16:12;;;;;;;8.30;7.50;;;;;;;10.37;49.58;96114.41;5032184;28;20180;-65
2021/04/30 00:18:37;;;;;;;9.33;8.33;;;;;;;9.75;50.76;96113.59;5032219;28;20202;-66
2021/04/30 00:21:04;;;;;;;9.20;8.17;;;;;;;9.68;51.03;96106.44;5034505;28;20207;-66
2021/04/30 00:23:32;;;;;;;8.93;8.03;;;;;;;9.80;50.51;96111.28;5031396;28;20249;-65
2021/04/30 00:25:58;;;;;;;9.97;8.60;;;;;;;10.01;50.47;96109.81;5031582;28;20454;-65
2021/04/30 00:28:24;;;;;;;10.03;7.57;;;;;;;9.86;51.29;96123.66;5031297;28;20430;-65
2021/04/30 00:30:51;;;;;;;9.43;8.43;;;;;;;10.05;50.67;96124.19;5047008;28;20784;-66
2021/04/30 00:33:18;;;;;;;9.17;7.97;;;;;;;9.91;51.14;96118.72;5030575;28;20507;-67
2021/04/30 00:35:44;;;;;;;9.73;8.73;;;;;;;9.67;51.50;96123.13;5031979;28;20429;-67
2021/04/30 00:38:10;;;;;;;10.10;8.00;;;;;;;9.70;51.36;96124.56;5033868;28;20462;-67
2021/04/30 00:40:36;;;;;;;10.83;8.67;;;;;;;9.62;52.04;96128.06;5046387;28;20446;-66
2021/04/30 00:43:02;;;;;;;10.13;8.80;;;;;;;9.50;51.74;96118.97;5031499;28;20195;-65
2021/04/30 00:45:27;;;;;;;9.90;8.13;;;;;;;9.30;52.50;96118.56;5031619;28;20184;-65
2021/04/30 00:47:54;;;;;;;11.80;8.93;;;;;;;9.05;52.98;96116.91;5031114;28;20529;-66
2021/04/30 00:50:22;;;;;;;9.23;8.27;;;;;;;9.28;52.80;96110.09;5031200;28;20669;-67
2021/04/30 00:52:47;;;;;;;9.97;8.37;;;;;;;9.12;52.77;96113.59;5031350;28;20465;-66
2021/04/30 00:55:15;;;;;;;12.50;9.30;;;;;;;9.30;52.26;96105.50;5031395;28;20525;-67
2021/04/30 00:57:46;;;;;;;9.50;8.60;;;;;;;9.32;52.15;96114.81;5031407;28;20218;-66
2021/04/30 01:00:13;;;;;;;10.07;8.17;;;;;;;9.34;51.93;96122.50;5041088;28;20462;-66
2021/04/30 01:02:39;;;;;;;11.60;9.30;;;;;;;9.38;51.84;96119.34;5031086;28;20418;-66
2021/04/30 01:05:06;;;;;;;10.20;8.80;;;;;;;9.36;52.61;96123.94;5031252;28;20504;-69
2021/04/30 01:07:32;;;;;;;10.43;8.63;;;;;;;9.58;52.02;96118.91;5031426;28;20426;-66
2021/04/30 01:09:58;;;;;;;9.80;8.53;;;;;;;9.55;51.70;96118.44;5034687;28;20716;-66
2021/04/30 01:12:24;;;;;;;10.80;9.07;;;;;;;9.12;52.29;96117.03;5035290;28;20207;-67
2021/04/30 01:14:50;;;;;;;9.43;8.53;;;;;;;8.91;53.31;96115.78;5033289;28;20437;-67
2021/04/30 01:17:16;;;;;;;10.10;9.10;;;;;;;9.31;52.56;96118.41;5034935;28;20183;-67
2021/04/30 01:19:42;;;;;;;8.43;7.63;;;;;;;9.58;52.17;96126.75;5034685;28;20805;-71
2021/04/30 01:22:07;;;;;;;10.20;9.20;;;;;;;9.25;52.98;96131.38;5034730;28;20707;-66
2021/04/30 01:24:33;;;;;;;11.70;9.53;;;;;;;9.46;52.04;96128.13;5035173;28;20183;-65
2021/04/30 01:26:59;;;;;;;11.17;8.90;;;;;;;9.62;51.38;96129.88;5033717;28;20198;-67
2021/04/30 01:29:25;;;;;;;10.23;8.53;;;;;;;9.34;52.26;96136.38;5035148;28;20199;-67
2021/04/30 01:31:51;;;;;;;9.40;8.50;;;;;;;9.51;51.24;96136.28;5033343;28;20337;-66
2021/04/30 01:34:16;;;;;;;13.57;9.10;;;;;;;9.37;51.44;96125.56;5035287;28;20431;-66
2021/04/30 01:36:42;;;;;;;10.97;8.50;;;;;;;9.44;51.00;96117.84;5035739;28;20180;-65
2021/04/30 01:39:10;;;;;;;18.50;9.40;;;;;;;9.43;51.21;96118.84;5037429;28;20183;-66
2021/04/30 01:41:37;;;;;;;21.10;8.97;;;;;;;9.07;51.42;96117.53;5034875;28;20227;-67
2021/04/30 01:44:07;;;;;;;11.10;9.87;;;;;;;9.07;50.74;96124.56;5035128;28;20457;-66
2021/04/30 01:46:33;;;;;;;12.20;9.37;;;;;;;9.25;51.55;96126.94;5036102;28;20522;-66
2021/04/30 01:49:00;;;;;;;11.20;10.03;;;;;;;9.53;49.97;96119.44;5035263;28;21038;-66
2021/04/30 01:51:25;;;;;;;10.70;9.60;;;;;;;9.30;50.66;96121.19;5034345;28;20207;-65
2021/04/30 01:53:51;;;;;;;12.27;9.67;;;;;;;9.20;51.01;96126.63;5034466;28;20458;-66
2021/04/30 01:56:17;;;;;;;11.17;10.07;;;;;;;9.06;52.03;96131.59;5036526;28;20278;-65
2021/04/30 01:58:43;;;;;;;12.50;10.50;;;;;;;9.07;50.83;96132.41;5036512;28;20418;-68
2021/04/30 02:01:10;;;;;;;11.77;9.90;;;;;;;9.06;50.93;96134.22;5036219;28;20200;-66
2021/04/30 02:03:35;;;;;;;11.90;9.80;;;;;;;9.30;50.59;96136.88;5036298;28;20422;-67
2021/04/30 02:06:02;;;;;;;14.03;10.57;;;;;;;9.21;51.86;96138.69;5036964;28;20430;-66
2021/04/30 02:08:27;;;;;;;11.30;9.60;;;;;;;9.45;50.89;96137.00;5034619;28;20188;-65
2021/04/30 02:10:53;;;;;;;12.90;10.63;;;;;;;9.29;50.80;96133.47;5049123;28;20446;-65
2021/04/30 02:13:20;;;;;;;11.87;10.23;;;;;;;9.50;50.89;96139.88;5034058;28;20211;-66
2021/04/30 02:15:47;;;;;;;11.47;10.27;;;;;;;9.36;51.52;96136.22;5042487;28;20184;-66
2021/04/30 02:18:13;;;;;;;13.40;11.10;;;;;;;9.41;51.17;96144.34;5033839;28;20476;-67
2021/04/30 02:20:39;;;;;;;14.80;11.23;;;;;;;9.25;52.78;96147.84;5018739;28;20457;-66
2021/04/30 02:23:05;;;;;;;15.13;11.53;;;;;;;9.21;54.08;96141.31;5034394;28;20431;-66
2021/04/30 02:25:31;;;;;;;13.97;10.80;;;;;;;9.45;53.11;96155.28;5033055;28;20522;-66
2021/04/30 02:27:59;;;;;;;15.70;12.17;;;;;;;9.25;54.41;96141.81;5033817;28;20426;-66
2021/04/30 02:30:26;;;;;;;15.50;11.97;;;;;;;9.29;54.83;96133.47;5034291;28;20446;-67
2021/04/30 02:32:52;;;;;;;16.10;13.10;;;;;;;9.30;54.35;96137.72;5033390;28;20489;-67
2021/04/30 02:35:22;;;;;;;14.97;12.47;;;;;;;9.41;54.47;96133.09;5034062;28;20514;-67
2021/04/30 02:37:48;;;;;;;14.10;12.43;;;;;;;9.76;53.84;96123.06;5034136;28;20832;-67
2021/04/30 02:40:15;;;;;;;15.00;12.40;;;;;;;9.93;52.87;96121.16;5035395;28;20430;-67
2021/04/30 02:42:42;;;;;;;16.03;12.87;;;;;;;9.68;53.53;96113.47;5034025;28;20796;-66
2021/04/30 02:45:09;;;;;;;15.70;13.27;;;;;;;9.91;53.01;96116.09;5033572;28;20442;-67
2021/04/30 02:47:35;;;;;;;15.03;12.00;;;;;;;9.93;52.77;96103.66;5033725;28;20791;-67
2021/04/30 02:50:03;;;;;;;17.00;12.50;;;;;;;10.01;52.47;96104.56;5031735;28;20430;-66
2021/04/30 02:52:29;;;;;;;15.60;12.60;;;;;;;9.70;53.00;96102.84;5033446;28;20596;-67
2021/04/30 02:54:54;;;;;;;17.83;12.73;;;;;;;9.56;53.54;96109.63;5033077;28;20436;-67
2021/04/30 02:57:20;;;;;;;14.70;12.23;;;;;;;9.59;53.21;96117.94;5033624;28;20502;-68
2021/04/30 02:59:47;;;;;;;13.73;11.73;;;;;;;9.46;53.62;96113.28;5029038;28;20219;-67
2021/04/30 03:02:15;;;;;;;15.57;12.37;;;;;;;9.70;53.14;96108.06;5033520;28;20497;-66
2021/04/30 03:04:41;;;;;;;15.47;12.00;;;;;;;9.65;52.56;96112.03;5033542;28;20426;-66
2021/04/30 03:07:08;;;;;;;14.70;12.63;;;;;;;9.77;52.57;96117.66;5033244;28;20502;-65
2021/04/30 03:09:34;;;;;;;16.63;13.90;;;;;;;9.31;53.70;96126.25;5032082;28;21033;-66
2021/04/30 03:11:59;;;;;;;12.83;10.90;;;;;;;9.47;53.75;96121.91;5032787;28;20533;-66
2021/04/30 03:14:25;;;;;;;16.87;13.57;;;;;;;9.07;54.87;96124.56;5031845;28;20221;-66
2021/04/30 03:16:51;;;;;;;17.20;13.17;;;;;;;8.92;56.33;96132.28;5033074;28;20184;-66
2021/04/30 03:19:17;;;;;;;15.23;12.33;;;;;;;8.94;56.46;96138.16;5033543;28;20503;-66
2021/04/30 03:21:42;;;;;;;16.00;12.43;;;;;;;9.19;55.73;96132.84;5032845;28;20207;-65
2021/04/30 03:24:09;;;;;;;15.70;13.03;;;;;;;9.10;56.18;96126.00;5033046;28;20176;-66
2021/04/30 03:26:35;;;;;;;13.50;12.00;;;;;;;9.34;55.71;96125.91;5031836;28;20194;-66
2021/04/30 03:29:02;;;;;;;16.93;12.30;;;;;;;9.05;56.49;96135.19;5033522;28;20454;-66
2021/04/30 03:31:27;;;;;;;14.80;12.50;;;;;;;9.11;56.84;96125.03;5036076;28;20446;-67
2021/04/30 03:33:54;;;;;;;15.27;12.50;;;;;;;9.12;55.73;96118.81;5016656;28;20854;-67
2021/04/30 03:36:20;;;;;;;18.93;12.43;;;;;;;9.43;55.00;96110.19;5034328;28;20184;-66
2021/04/30 03:38:47;;;;;;;13.97;12.03;;;;;;;9.52;54.97;96111.78;5031684;28;20928;-66
2021/04/30 03:41:13;;;;;;;14.63;12.57;;;;;;;9.18;55.28;96111.13;5032438;28;20442;-67
2021/04/30 03:43:39;;;;;;;17.40;13.50;;;;;;;8.83;56.84;96112.38;5032966;28;20963;-66
2021/04/30 03:46:04;;;;;;;14.80;11.97;;;;;;;8.90;56.46;96113.34;5030255;28;20419;-66
2021/04/30 03:48:31;;;;;;;17.23;13.50;;;;;;;9.14;55.70;96115.03;5028902;28;20184;-67
2021/04/30 03:50:57;;;;;;;17.50;12.17;;;;;;;8.97;55.98;96114.28;5033007;28;20283;-67
2021/04/30 03:53:23;;;;;;;16.73;12.83;;;;;;;9.24;55.42;96108.81;5044206;28;20979;-67
2021/04/30 03:55:49;;;;;;;15.73;13.07;;;;;;;9.14;55.10;96095.94;5035330;28;20423;-67
2021/04/30 03:58:15;;;;;;;17.70;12.50;;;;;;;9.13;54.29;96096.94;5043054;28;20179;-67
2021/04/30 04:00:40;;;;;;;16.70;12.93;;;;;;;8.71;55.48;96094.44;5044418;28;20457;-67
2021/04/30 04:03:06;;;;;;;15.83;13.43;;;;;;;8.94;54.44;96096.34;5035074;28;20180;-66
2021/04/30 04:05:32;;;;;;;14.70;12.07;;;;;;;9.02;54.38;96096.31;5032321;28;20259;-66
2021/04/30 04:07:57;;;;;;;14.33;12.20;;;;;;;9.09;53.85;96101.69;5032511;28;20183;-67
2021/04/30 04:10:23;;;;;;;17.67;13.13;;;;;;;8.75;55.46;96100.19;5038356;28;20206;-67
2021/04/30 04:12:48;;;;;;;15.07;11.87;;;;;;;8.78;54.81;96106.84;5044977;28;20564;-67
2021/04/30 04:15:16;;;;;;;16.87;12.40;;;;;;;8.78;54.17;96106.84;5045453;28;20267;-67
2021/04/30 04:17:42;;;;;;;14.90;11.77;;;;;;;8.86;54.58;96099.81;5043366;28;20183;-67
2021/04/30 04:20:08;;;;;;;15.10;12.17;;;;;;;9.24;53.46;96095.75;5039783;28;20426;-68
2021/04/30 04:22:34;;;;;;;19.60;12.63;;;;;;;9.25;52.76;96098.19;5034163;28;20435;-67
2021/04/30 04:25:00;;;;;;;16.00;12.67;;;;;;;9.32;52.49;96100.91;5025104;28;20452;-68
2021/04/30 04:27:25;;;;;;;16.63;11.20;;;;;;;9.21;52.36;96104.72;5032744;28;20198;-67
2021/04/30 04:29:51;;;;;;;16.17;12.30;;;;;;;8.96;52.73;96106.63;5032809;28;20186;-66
2021/04/30 04:32:16;;;;;;;17.10;12.30;;;;;;;8.79;53.41;96111.91;5032885;28;20548;-67
2021/04/30 04:34:42;;;;;;;17.07;12.50;;;;;;;8.92;53.99;96111.38;5032752;28;20187;-66
2021/04/30 04:37:08;;;;;;;14.40;11.67;;;;;;;9.18;53.35;96105.09;5032695;28;20204;-66
2021/04/30 04:39:33;;;;;;;17.90;11.67;;;;;;;9.37;52.43;96117.72;5033827;28;20270;-67
2021/04/30 04:42:00;;;;;;;15.47;11.23;;;;;;;9.62;51.28;96112.34;5030318;28;20203;-67
2021/04/30 04:44:27;;;;;;;15.77;12.00;;;;;;;9.82;51.14;96119.78;5037521;28;20186;-68
2021/04/30 04:46:53;;;;;;;19.07;12.47;;;;;;;9.78;50.54;96126.34;5035984;28;20465;-67
2021/04/30 04:49:18;;;;;;;13.30;11.40;;;;;;;9.90;50.78;96124.09;5036936;28;20430;-67
2021/04/30 04:51:44;;;;;;;14.30;11.63;;;;;;;9.91;51.07;96120.50;5037391;28;20207;-67
2021/04/30 04:54:10;;;;;;;14.57;11.30;;;;;;;10.18;50.36;96134.06;5037445;28;20212;-67
2021/04/30 04:56:36;;;;;;;13.63;11.80;;;;;;;10.15;49.14;96127.38;5037409;28;20271;-67
2021/04/30 04:59:02;;;;;;;17.50;11.00;;;;;;;10.07;49.45;96132.69;5036830;28;20210;-68
2021/04/30 05:01:28;;;;;;;14.03;11.67;;;;;;;10.03;49.18;96131.41;5036128;28;20529;-67
2021/04/30 05:03:54;;;;;;;16.20;12.70;;;;;;;9.64;49.54;96136.53;5036021;28;20440;-67
2021/04/30 05:06:19;;;;;;;18.00;11.77;;;;;;;9.99;49.56;96144.81;5036013;28;20676;-67
2021/04/30 05:08:45;;;;;;;14.37;11.13;;;;;;;10.15;49.53;96143.09;5035792;28;20183;-67
2021/04/30 05:11:11;;;;;;;15.60;12.10;;;;;;;10.30;49.35;96136.09;5036240;28;20290;-67
2021/04/30 05:13:37;;;;;;;16.60;12.53;;;;;;;10.22;49.45;96132.72;5035341;28;20204;-67
2021/04/30 05:16:03;;;;;;;17.23;12.63;;;;;;;10.17;49.30;96137.66;5037245;28;20183;-65
2021/04/30 05:18:29;;;;;;;14.60;11.40;;;;;;;10.15;49.34;96132.59;5034931;28;20183;-68
2021/04/30 05:20:55;;;;;;;16.73;13.40;;;;;;;10.35;48.44;96137.34;5035855;28;20798;-67
2021/04/30 05:23:21;;;;;;;19.13;14.80;;;;;;;10.38;48.82;96139.66;5035488;28;20454;-68
2021/04/30 05:25:48;;;;;;;17.63;12.13;;;;;;;10.00;49.74;96137.81;5036905;28;21109;-66
2021/04/30 05:28:14;;;;;;;24.40;13.93;;;;;;;10.00;50.33;96143.03;5036304;28;20448;-67
2021/04/30 05:30:40;;;;;;;15.83;11.63;;;;;;;10.09;49.79;96139.38;5035094;28;20442;-68
2021/04/30 05:33:05;;;;;;;18.23;12.90;;;;;;;10.15;49.44;96140.47;5037092;28;20465;-68
2021/04/30 05:35:31;;;;;;;15.70;11.97;;;;;;;10.18;49.43;96123.56;5037356;28;20187;-67
2021/04/30 05:37:57;;;;;;;13.30;11.77;;;;;;;10.19;49.25;96133.91;5037214;28;20180;-67
2021/04/30 05:40:23;;;;;;;13.60;11.57;;;;;;;10.30;49.06;96120.38;5035211;28;20291;-66
2021/04/30 05:42:49;;;;;;;15.40;12.50;;;;;;;10.32;48.97;96124.63;5036435;28;20422;-67
2021/04/30 05:45:15;;;;;;;14.30;12.07;;;;;;;10.33;49.39;96128.88;5036150;28;20877;-67
2021/04/30 05:47:41;;;;;;;21.27;12.37;;;;;;;10.38;48.91;96127.38;5034120;28;20191;-68
2021/04/30 05:50:07;;;;;;;18.43;13.17;;;;;;;10.42;48.64;96127.84;5034198;28;20419;-67
2021/04/30 05:52:33;;;;;;;14.37;12.20;;;;;;;9.93;49.39;96134.22;5034733;28;20208;-67
2021/04/30 05:54:59;;;;;;;18.37;12.20;;;;;;;10.24;49.62;96118.44;5016394;28;20419;-67
2021/04/30 05:57:25;;;;;;;18.47;11.40;;;;;;;10.29;49.33;96097.81;5034512;28;20191;-64
2021/04/30 05:59:50;;;;;;;16.30;12.77;;;;;;;9.62;50.70;96101.88;5035574;28;20430;-66
2021/04/30 06:02:16;;;;;;;14.90;13.00;;;;;;;8.84;52.43;96095.72;5035135;28;20255;-66
2021/04/30 06:04:41;;;;;;;14.40;12.70;;;;;;;9.43;51.40;96091.88;5035041;28;20180;-66
2021/04/30 06:07:07;;;;;;;17.20;13.80;;;;;;;9.80;50.46;96092.97;5036341;28;20700;-67
2021/04/30 06:09:33;;;;;;;17.97;12.63;;;;;;;9.64;51.32;96097.31;5035496;28;20222;-67
2021/04/30 06:11:58;;;;;;;16.43;12.57;;;;;;;9.80;50.98;96101.59;5036982;28;20286;-67
2021/04/30 06:14:30;;;;;;;17.63;12.93;;;;;;;10.33;49.82;96097.44;5037352;28;20180;-66
2021/04/30 06:16:57;;;;;;;16.40;13.67;;;;;;;10.47;49.05;96106.34;5034027;28;20190;-66
2021/04/30 06:19:22;;;;;;;20.87;13.70;;;;;;;10.27;49.03;96094.53;5034054;28;20959;-67
2021/04/30 06:21:49;;;;;;;18.70;13.40;;;;;;;9.53;51.22;96095.09;5033595;28;20454;-67
2021/04/30 06:24:14;;;;;;;17.37;13.73;;;;;;;9.04;51.96;96086.50;5034041;28;20226;-66
2021/04/30 06:26:40;;;;;;;18.47;12.33;;;;;;;9.28;52.51;96079.53;5034515;28;20422;-67
2021/04/30 06:29:05;;;;;;;19.47;13.80;;;;;;;9.65;51.23;96090.25;5034782;28;20201;-65
2021/04/30 06:31:31;;;;;;;19.37;14.57;;;;;;;9.71;51.41;96091.38;5034237;28;20306;-67
2021/04/30 06:33:56;;;;;;;17.70;13.80;;;;;;;9.53;51.41;96097.72;5033855;28;20730;-67
2021/04/30 06:36:22;;;;;;;21.03;14.40;;;;;;;9.52;51.44;96096.88;5032827;28;20282;-67
2021/04/30 06:38:47;;;;;;;17.47;13.97;;;;;;;9.74;50.94;96098.88;5032049;28;20194;-67
2021/04/30 06:41:14;;;;;;;20.03;13.00;;;;;;;9.33;51.52;96097.31;5033491;28;20286;-66
2021/04/30 06:43:40;;;;;;;17.87;13.43;;;;;;;9.19;52.22;96091.84;5035897;28;20191;-65
2021/04/30 06:46:05;;;;;;;22.43;14.43;;;;;;;10.05;50.68;96084.91;5034055;28;20426;-67
2021/04/30 06:48:31;;;;;;;20.97;14.10;;;;;;;10.37;50.04;96096.09;5033785;28;20183;-65
2021/04/30 06:50:56;;;;;;;20.93;13.10;;;;;;;10.69;48.85;96105.47;5032878;28;20241;-68
2021/04/30 06:53:22;;;;;;;16.13;12.60;;;;;;;10.15;49.60;96109.84;5022550;28;20203;-68
2021/04/30 06:55:48;;;;;;;26.50;13.47;;;;;;;10.60;48.96;96106.53;5031518;28;20206;-66
2021/04/30 06:58:13;;;;;;;17.80;13.50;;;;;;;9.72;50.69;96122.59;5033186;28;20184;-66
2021/04/30 07:00:39;;;;;;;16.10;13.60;;;;;;;9.80;50.81;96119.13;5033048;28;20206;-66
2021/04/30 07:03:05;;;;;;;24.83;12.37;;;;;;;9.84;51.03;96110.75;5032992;28;20244;-66
2021/04/30 07:05:30;;;;;;;14.50;12.10;;;;;;;10.00;50.12;96101.16;5032075;28;20183;-66
2021/04/30 07:08:00;;;;;;;16.37;13.20;;;;;;;9.93;49.91;96097.59;5032868;28;20433;-66
2021/04/30 07:10:26;;;;;;;16.30;12.50;;;;;;;10.09;48.76;96083.56;5032810;28;20236;-68
2021/04/30 07:12:51;;;;;;;17.70;11.00;;;;;;;10.15;47.90;96093.34;5032688;28;20482;-67
2021/04/30 07:15:17;;;;;;;13.50;11.30;;;;;;;10.48;46.86;96084.41;5033722;28;20183;-69
2021/04/30 07:17:44;;;;;;;18.67;11.67;;;;;;;10.48;47.33;96079.16;5033270;28;20215;-66
2021/04/30 07:20:10;;;;;;;13.60;11.00;;;;;;;10.06;47.87;96078.69;5032190;28;20422;-67
2021/04/30 07:22:35;;;;;;;15.23;11.70;;;;;;;10.42;47.21;96081.50;5031595;28;20434;-67
2021/04/30 07:25:01;;;;;;;16.80;10.97;;;;;;;9.63;48.75;96071.34;5032625;28;20422;-67
2021/04/30 07:27:26;;;;;;;15.17;11.57;;;;;;;9.55;49.56;96085.28;5032901;28;20179;-67
2021/04/30 07:29:52;;;;;;;14.00;11.43;;;;;;;10.09;48.30;96070.47;5032538;28;20255;-67
2021/04/30 07:32:18;;;;;;;14.87;11.03;;;;;;;10.29;47.88;96076.84;5032542;28;20230;-65
2021/04/30 07:34:43;;;;;;;17.37;12.50;;;;;;;9.79;48.21;96081.66;5031588;28;20249;-65
2021/04/30 07:37:09;;;;;;;18.20;12.00;;;;;;;9.53;49.56;96071.56;5031842;28;20187;-68
2021/04/30 07:39:35;;;;;;;15.30;11.73;;;;;;;9.24;50.50;96074.81;5036983;28;20770;-66
2021/04/30 07:42:01;;;;;;;14.67;10.90;;;;;;;10.29;52.29;96069.00;5032977;28;20312;-68
2021/04/30 07:44:27;;;;;;;14.87;12.17;;;;;;;9.93;49.48;96072.25;5034938;28;20229;-67
2021/04/30 07:46:53;;;;;;;14.60;10.60;;;;;;;10.52;50.21;96068.16;5040932;28;20859;-68
2021/04/30 07:49:18;;;;;;;12.13;10.43;;;;;;;10.79;47.70;96076.38;5026572;28;20290;-66
2021/04/30 07:51:44;;;;;;;13.23;10.27;;;;;;;10.15;49.43;96070.56;5032502;28;20206;-66
2021/04/30 07:54:11;;;;;;;13.73;11.77;;;;;;;10.20;49.11;96062.22;5032987;28;20211;-68
2021/04/30 07:56:37;;;;;;;19.43;12.07;;;;;;;10.59;48.56;96076.91;5031836;28;20184;-67
2021/04/30 07:59:03;;;;;;;13.80;10.90;;;;;;;10.97;48.35;96083.03;5032020;28;20922;-68
2021/04/30 08:01:29;;;;;;;15.20;11.83;;;;;;;10.96;47.38;96081.44;5036121;28;20429;-69
2021/04/30 08:03:55;;;;;;;14.10;9.80;;;;;;;11.30;49.34;96080.03;5032417;28;20206;-69
2021/04/30 08:06:21;;;;;;;11.60;9.63;;;;;;;11.16;46.89;96092.97;5034562;28;20426;-69
2021/04/30 08:08:46;;;;;;;12.20;9.80;;;;;;;11.74;48.82;96102.69;5031456;28;20580;-67
2021/04/30 08:11:12;;;;;;;13.33;11.20;;;;;;;10.22;46.47;96102.09;5032389;28;20204;-69
2021/04/30 08:13:38;;;;;;;15.53;10.70;;;;;;;10.78;50.22;96106.19;5041751;28;20209;-68
2021/04/30 08:16:04;;;;;;;14.40;10.37;;;;;;;10.92;47.68;96107.19;5032508;28;20188;-67
2021/04/30 08:18:30;;;;;;;22.70;12.63;;;;;;;10.60;46.43;96102.09;5039032;28;20190;-68
2021/04/30 08:20:56;;;;;;;12.33;10.80;;;;;;;10.32;47.18;96108.91;5032887;28;20203;-68
2021/04/30 08:23:21;;;;;;;17.90;11.77;;;;;;;10.07;48.18;96116.97;5014715;28;20484;-68
2021/04/30 08:25:48;;;;;;;15.20;10.63;;;;;;;9.77;49.22;96114.22;5031969;28;20175;-69
2021/04/30 08:28:14;;;;;;;16.17;12.40;;;;;;;10.09;48.23;96102.72;5033529;28;20203;-67
2021/04/30 08:30:42;;;;;;;12.03;10.30;;;;;;;10.17;49.09;96106.25;5033648;28;20525;-68
2021/04/30 08:33:08;;;;;;;12.77;10.90;;;;;;;9.93;48.54;96101.03;5040535;28;20271;-67
2021/04/30 08:35:34;;;;;;;15.27;11.33;;;;;;;9.91;48.85;96091.72;5038984;28;20451;-66
2021/04/30 08:38:01;;;;;;;15.10;11.83;;;;;;;10.02;50.50;96090.50;5027157;28;20669;-68
2021/04/30 08:40:28;;;;;;;16.13;11.40;;;;;;;9.71;51.87;96088.75;5033031;28;20207;-67
2021/04/30 08:42:55;;;;;;;17.97;11.90;;;;;;;10.57;48.48;96068.44;5034103;28;20843;-67
2021/04/30 08:45:20;;;;;;;13.93;12.00;;;;;;;10.47;48.38;96056.56;5042966;28;20428;-68
2021/04/30 08:47:46;;;;;;;18.53;11.40;;;;;;;10.62;48.94;96059.19;5047832;28;20434;-69
2021/04/30 08:50:14;;;;;;;16.70;11.90;;;;;;;10.53;50.34;96056.66;5047236;28;20184;-68
2021/04/30 08:52:40;;;;;;;15.10;12.03;;;;;;;10.26;49.40;96061.50;5044486;28;20234;-66
2021/04/30 08:55:11;;;;;;;13.90;10.60;;;;;;;10.65;49.11;96059.63;5032948;28;20434;-67
2021/04/30 08:57:37;;;;;;;14.63;12.00;;;;;;;10.51;48.95;96066.50;5030888;28;20423;-69
2021/04/30 09:00:05;;;;;;;19.07;12.50;;;;;;;10.52;48.71;96068.16;4999702;28;20446;-68
2021/04/30 09:02:33;;;;;;;15.93;11.70;;;;;;;10.26;49.77;96071.16;5015182;28;20423;-67
2021/04/30 09:04:59;;;;;;;17.40;12.70;;;;;;;10.15;50.06;96069.78;5031843;28;20465;-68
2021/04/30 09:07:25;;;;;;;18.83;12.50;;;;;;;9.68;50.84;96077.66;5032449;28;20853;-68
2021/04/30 09:10:05;;;;;;;14.77;11.33;;;;;;;10.06;50.89;96091.78;5039675;28;20542;-67
2021/04/30 09:12:35;;;;;;;15.07;12.60;;;;;;;9.24;51.72;96101.78;5033348;28;20552;-68
2021/04/30 09:15:01;;;;;;;20.23;12.43;;;;;;;9.62;51.62;96104.50;5024292;28;20467;-67
2021/04/30 09:17:29;;;;;;;18.60;14.03;;;;;;;9.65;51.99;96112.03;5034006;28;20514;-68
2021/04/30 09:20:02;;;;;;;15.57;11.97;;;;;;;9.72;52.71;96096.44;5032693;28;20233;-69
2021/04/30 09:22:30;;;;;;;18.93;15.00;;;;;;;9.10;54.66;96092.88;5031676;28;20462;-68
2021/04/30 09:24:57;;;;;;;21.43;14.40;;;;;;;8.63;55.64;96099.72;5032467;28;20820;-68
2021/04/30 09:27:39;;;;;;;21.67;14.80;;;;;;;9.17;55.09;96093.00;5032354;28;20515;-67
2021/04/30 09:30:15;;;;;;;23.07;13.90;;;;;;;9.17;55.13;96098.22;5036335;28;20414;-66
2021/04/30 09:33:23;;;;;;;17.50;14.67;;;;;;;9.24;55.06;96088.69;5036121;28;20453;-66
2021/04/30 09:35:50;;;;;;;17.70;13.80;;;;;;;8.97;55.60;96080.31;4972140;28;21027;-65
2021/04/30 09:38:30;;;;;;;16.70;14.00;;;;;;;9.48;54.82;96084.31;4975516;28;20433;-64
2021/04/30 09:41:01;;;;;;;16.70;13.67;;;;;;;9.40;55.17;96087.00;4951924;28;20453;-67
2021/04/30 09:43:50;;;;;;;17.53;13.30;;;;;;;9.28;55.50;96089.16;4976846;28;20433;-65
2021/04/30 09:46:35;;;;;;;20.10;14.07;;;;;;;9.26;55.62;96081.50;4970632;28;20430;-66
2021/04/30 09:49:07;;;;;;;17.73;12.43;;;;;;;9.86;53.36;96073.94;4968045;28;20447;-65
2021/04/30 09:51:41;;;;;;;17.63;13.93;;;;;;;9.67;53.80;96083.88;4971571;28;20450;-64
2021/04/30 09:54:27;;;;;;;20.60;13.60;;;;;;;9.80;54.46;96085.09;4976805;28;20468;-65
2021/04/30 09:57:19;;;;;;;18.80;13.80;;;;;;;9.73;53.64;96076.31;4949169;28;20481;-64
2021/04/30 09:59:59;;;;;;;18.00;13.70;;;;;;;9.32;55.10;96065.16;4951310;28;20434;-66
2021/04/30 10:02:27;;;;;;;18.93;14.27;;;;;;;9.35;55.13;96071.81;4955539;29;20442;-66
2021/04/30 10:04:58;;;;;;;16.13;13.80;;;;;;;9.91;53.83;96074.22;4925844;28;20435;-64
2021/04/30 10:07:35;;;;;;;16.40;12.90;;;;;;;9.79;54.00;96080.88;5021489;28;20427;-65
2021/04/30 10:10:05;;;;;;;16.33;12.70;;;;;;;9.41;55.76;96075.56;5035986;28;20692;-65
2021/04/30 10:12:31;;;;;;;21.40;15.03;;;;;;;9.51;55.66;96079.56;5035297;28;20531;-66
2021/04/30 10:14:57;;;;;;;16.90;13.90;;;;;;;9.64;55.71;96081.63;5036294;28;20422;-65
2021/04/30 10:17:23;;;;;;;18.93;13.13;;;;;;;8.93;56.29;96073.00;5034896;28;20430;-65
2021/04/30 10:19:50;;;;;;;18.73;15.00;;;;;;;9.15;56.83;96079.28;5033106;28;20434;-64
2021/04/30 10:22:20;;;;;;;20.50;15.40;;;;;;;8.69;58.11;96080.78;5033775;28;20977;-65
2021/04/30 10:24:49;;;;;;;23.97;14.67;;;;;;;9.34;57.67;96088.50;5041958;28;20418;-63
2021/04/30 10:27:17;;;;;;;19.07;15.63;;;;;;;9.30;58.08;96093.25;5035162;28;20450;-65
2021/04/30 10:29:49;;;;;;;29.63;16.53;;;;;;;9.09;58.51;96098.25;5032351;28;20427;-66
2021/04/30 10:32:17;;;;;;;25.43;16.97;;;;;;;8.72;60.30;96098.69;5046387;28;20446;-66
2021/04/30 10:34:45;;;;;;;23.93;17.67;;;;;;;8.59;61.40;96111.47;5044530;28;20433;-65
2021/04/30 10:37:11;;;;;;;20.57;17.20;;;;;;;8.10;62.27;96101.88;5035407;28;20565;-64
2021/04/30 10:39:37;;;;;;;24.43;17.70;;;;;;;8.22;62.45;96107.56;5037099;28;20454;-66
2021/04/30 10:42:10;;;;;;;25.57;17.40;;;;;;;8.44;63.48;96119.94;5038306;28;20219;-65
2021/04/30 10:44:41;;;;;;;21.47;16.97;;;;;;;8.60;62.17;96129.59;5036103;28;20243;-66
2021/04/30 10:47:09;;;;;;;24.00;17.03;;;;;;;8.08;62.28;96124.69;5035553;28;20435;-65
2021/04/30 10:49:36;;;;;;;24.07;18.07;;;;;;;8.44;62.52;96125.16;5034660;28;20462;-67
2021/04/30 10:52:08;;;;;;;25.20;19.97;;;;;;;8.81;62.99;96124.81;5034469;28;20953;-69
2021/04/30 10:54:38;;;;;;;33.43;19.13;;;;;;;8.72;62.25;96129.25;5034569;28;20427;-68
2021/04/30 10:57:07;;;;;;;27.43;18.60;;;;;;;8.40;65.25;96131.72;5034306;28;20427;-68
2021/04/30 10:59:36;;;;;;;26.80;20.30;;;;;;;8.37;64.18;96139.88;5035346;28;21137;-66
2021/04/30 11:02:21;;;;;;;24.60;17.70;;;;;;;8.43;63.64;96144.44;5026995;28;20450;-65
2021/04/30 11:05:05;;;;;;;27.63;20.70;;;;;;;8.20;64.11;96146.88;5033752;28;20517;-67
2021/04/30 11:07:33;;;;;;;29.00;20.03;;;;;;;7.94;65.84;96144.44;5028906;28;20445;-67
2021/04/30 11:09:59;;;;;;;27.30;19.97;;;;;;;7.73;66.56;96148.31;5030193;28;20434;-67
2021/04/30 11:12:26;;;;;;;28.00;21.00;;;;;;;7.88;66.77;96148.47;5034425;28;21049;-67
2021/04/30 11:15:10;;;;;;;31.63;21.90;;;;;;;7.62;68.51;96138.19;5033143;28;20864;-66
2021/04/30 11:17:49;;;;;;;31.10;22.73;;;;;;;7.26;70.33;96147.03;5031113;28;20462;-66
2021/04/30 11:20:18;;;;;;;31.67;22.57;;;;;;;7.57;69.39;96143.88;5032462;28;20786;-67
2021/04/30 11:23:21;;;;;;;32.60;22.87;;;;;;;7.06;70.79;96128.22;5032465;28;20525;-65
2021/04/30 11:26:08;;;;;;;34.77;22.10;;;;;;;7.19;68.67;96120.78;5031024;28;20441;-67